EI9EF Weather Reports


Display with metric or nautical units.
time (UTC)temp
F
wind
direction
speed
MPH
gust
MPH
rain 1hr
in
rain 24hr
in
rain mn
in
humidity
%
barometer
mb
20180921153041 51 270 16.0 26.0 0.00 0.24 0.18 81 1008.9
20180921152023 52 272 16.0 27.0 0.00 0.04 0.04 75 1008.1
20180921151520 53 278 21.0 34.0 0.00 0.24 0.18 78 1008.5
20180921150559 54 232 16.0 28.0 0.00 0.04 0.04 74 1008.0
20180921150033 53 271 18.0 29.0 0.00 0.24 0.18 78 1008.3
20180921145054 53 263 17.0 24.0 0.00 0.04 0.04 73 1007.7
20180921144522 52 263 16.0 27.0 0.00 0.24 0.18 82 1008.1
20180921143620 53 281 17.0 26.0 0.00 0.04 0.04 75 1007.6
20180921143022 52 287 17.0 26.0 0.00 0.24 0.18 83 1008.0
20180921142148 53 268 13.0 24.0 0.00 0.04 0.04 79 1007.4
20180921141527 53 285 17.0 25.0 0.00 0.24 0.18 85 1007.6
20180921140655 53 269 13.0 22.0 0.00 0.04 0.04 82 1007.2
20180921140031 54 272 15.0 28.0 0.00 0.24 0.18 81 1007.5
20180921135223 55 251 15.0 25.0 0.00 0.04 0.04 73 1006.8
20180921134511 56 292 23.0 34.0 0.00 0.24 0.18 75 1007.0
20180921133750 56 275 14.0 23.0 0.00 0.04 0.04 72 1006.6
20180921133022 56 282 18.0 31.0 0.00 0.24 0.18 74 1006.8
20180921132302 55 267 18.0 26.0 0.00 0.04 0.04 68 1006.2
20180921131504 54 280 16.0 26.0 0.00 0.24 0.18 79 1006.5
20180921130816 53 280 13.0 24.0 0.00 0.04 0.04 75 1005.9
20180921130005 55 288 21.0 31.0 0.00 0.24 0.18 77 1006.3
20180921125320 55 284 13.0 23.0 0.00 0.04 0.04 72 1005.7
20180921124600 55 286 17.0 30.0 0.00 0.24 0.18 78 1005.9
20180921123827 55 266 13.0 24.0 0.00 0.04 0.04 76 1005.2
20180921123105 56 299 19.0 32.0 0.00 0.24 0.18 79 1005.6
20180921122355 54 308 14.0 25.0 0.01 0.04 0.04 73 1004.9
20180921121616 54 301 16.0 31.0 0.00 0.24 0.18 84 1005.0
20180921120901 54 297 16.0 26.0 0.01 0.04 0.04 76 1004.3
20180921120057 53 301 23.0 30.0 0.00 0.24 0.18 84 1004.5
20180921115428 54 297 14.0 27.0 0.02 0.04 0.04 79 1003.9
20180921114608 53 291 23.0 34.0 0.04 0.24 0.18 87 1003.9
20180921113926 52 303 13.0 32.0 0.02 0.04 0.04 83 1003.3
20180921113055 52 289 27.0 44.0 0.04 0.24 0.18 85 1003.6
20180921112451 53 272 18.0 32.0 0.01 0.03 0.03 81 1003.2
20180921111549 52 304 28.0 40.0 0.04 0.24 0.18 87 1002.9
20180921110922 52 296 20.0 30.0 0.01 0.03 0.03 81 1002.2
20180921110022 50 290 26.0 32.0 0.03 0.23 0.17 89 1002.5
20180921105418 52 257 17.0 37.0 0.00 0.02 0.02 81 1001.9
20180921104523 52 286 22.0 33.0 0.00 0.20 0.14 86 1001.8
20180921103931 52 286 17.0 28.0 0.01 0.02 0.02 82 1001.3
20180921103016 51 297 20.0 30.0 0.00 0.20 0.14 89 1001.3
20180921102444 51 279 13.0 28.0 0.01 0.02 0.02 84 1001.1
20180921101520 50 292 22.0 31.0 0.00 0.20 0.14 89 1000.9
20180921100956 51 290 13.0 23.0 0.01 0.02 0.02 85 1000.6
20180921100017 50 292 21.0 30.0 0.00 0.20 0.14 89 1000.5
20180921095517 51 253 16.0 23.0 0.01 0.02 0.02 84 1000.2
20180921094513 50 275 19.0 28.0 0.02 0.20 0.14 90 1000.2
20180921094030 51 273 9.0 21.0 0.00 0.01 0.01 86 999.8
20180921093007 51 282 15.0 21.0 0.02 0.20 0.14 93 999.8
20180921092555 51 238 11.0 18.0 0.00 0.01 0.01 88 999.3
20180921091057 50 269 13.0 26.0 0.01 0.01 0.01 88 998.7
20180921085558 49 275 14.0 25.0 0.01 0.01 0.01 88 998.4
20180921084613 49 302 19.0 28.0 0.01 0.18 0.12 95 998.2
20180921084108 49 288 12.0 21.0 0.01 0.01 0.01 90 997.6
20180921083057 47 307 19.0 26.0 0.07 0.18 0.12 95 997.6
20180921082630 48 308 14.0 23.0 0.01 0.01 0.01 92 997.2
20180921081553 46 293 11.0 18.0 0.07 0.17 0.11 95 997.4
20180921081142 0 0.0 0.0 0.00 0.00 0.00 997.0
20180921080117 45 231 1.0 8.0 0.07 0.17 0.11 95 997.2
20180921075635 0 0.0 0.0 0.00 0.00 0.00 996.8
20180921074620 44 256 5.0 14.0 0.07 0.17 0.11 95 996.9
20180921074108 0 0.0 0.0 0.00 0.00 0.00 996.5
20180921073152 45 219 9.0 14.0 0.01 0.11 0.05 94 996.7
20180921072604 0 0.0 0.0 0.00 0.00 0.00 996.3
20180921071605 45 213 11.0 16.0 0.00 0.10 0.04 94 996.7
20180921071049 0 0.0 0.0 0.00 0.00 0.00 996.3
20180921070105 44 219 8.0 16.0 0.00 0.10 0.04 94 996.7
20180921065530 0 0.0 0.0 0.00 0.00 0.00 996.4
20180921064548 44 222 10.0 16.0 0.00 0.10 0.04 94 996.7
20180921063957 0 0.0 0.0 0.00 0.00 0.00 996.4
20180921063103 44 238 9.0 17.0 0.00 0.10 0.04 94 996.7
20180921062446 0 0.0 0.0 0.00 0.00 0.00 996.5
20180921061601 43 216 9.0 14.0 0.00 0.10 0.04 94 996.8
20180921060930 0 0.0 0.0 0.00 0.00 0.00 996.4
20180921060040 43 228 10.0 15.0 0.00 0.10 0.04 94 996.9
20180921055419 0 0.0 0.0 0.00 0.00 0.00 996.6
20180921054540 43 231 8.0 13.0 0.00 0.10 0.04 93 997.0
20180921053827 0 0.0 0.0 0.00 0.00 0.00 996.7
20180921053111 42 233 7.0 13.0 0.01 0.10 0.04 93 997.1
20180921052325 0 0.0 0.0 0.00 0.00 0.00 996.8
20180921051527 42 245 6.0 10.0 0.01 0.10 0.04 93 997.1
20180921050830 0 0.0 0.0 0.00 0.00 0.00 996.9
20180921050039 42 245 6.0 12.0 0.01 0.10 0.04 92 997.3
20180921045317 0 0.0 0.0 0.00 0.00 0.00 996.9
20180921044607 43 253 5.0 8.0 0.01 0.10 0.04 92 997.3
20180921043757 0 0.0 0.0 0.00 0.00 0.00 997.0
20180921043052 43 236 3.0 8.0 0.00 0.09 0.03 92 997.5
20180921042227 0 0.0 0.0 0.00 0.00 0.00 997.2
20180921041553 43 215 5.0 10.0 0.01 0.09 0.03 92 997.6
20180921040710 0 0.0 0.0 0.00 0.00 0.00 997.4
20180921040036 43 250 6.0 11.0 0.01 0.09 0.03 92 997.5
20180921035150 0 0.0 0.0 0.00 0.00 0.00 997.3
20180921034521 43 249 6.0 10.0 0.01 0.09 0.03 92 997.6
20180921033621 0 0.0 0.0 0.00 0.00 0.00 997.3
20180921033023 43 232 8.0 13.0 0.01 0.09 0.03 93 997.6
20180921032057 0 0.0 0.0 0.00 0.00 0.00 997.5
20180921031516 43 251 6.0 10.0 0.00 0.08 0.02 93 997.7
20180921030557 0 0.0 0.0 0.00 0.00 0.00 997.4
20180921030025 43 240 7.0 12.0 0.00 0.08 0.02 92 997.5
20180921025111 0 0.0 0.0 0.00 0.00 0.00 997.5
20180921024524 43 256 4.0 8.0 0.00 0.08 0.02 91 997.6
20180921023630 0 0.0 0.0 0.00 0.00 0.00 997.5
20180921023025 43 237 5.0 9.0 0.01 0.08 0.02 91 997.8
20180921022120 0 0.0 0.0 0.00 0.00 0.00 997.5
20180921021525 44 253 4.0 11.0 0.01 0.08 0.02 90 997.7
20180921020602 0 0.0 0.0 0.00 0.00 0.00 997.5
20180921020020 44 269 7.0 11.0 0.01 0.08 0.02 90 997.7
20180921015016 0 0.0 0.0 0.00 0.00 0.00 997.4
20180921014520 44 277 6.0 13.0 0.01 0.08 0.02 90 997.7
20180921013526 0 0.0 0.0 0.00 0.00 0.00 997.5
20180921013011 44 280 9.0 16.0 0.00 0.07 0.01 91 997.8
20180921012010 0 0.0 0.0 0.00 0.00 0.00 997.5
20180921011527 44 255 7.0 13.0 0.00 0.07 0.01 90 997.9
20180921010459 0 0.0 0.0 0.00 0.00 0.00 997.4
20180921010009 44 272 8.0 13.0 0.00 0.07 0.01 89 997.7
20180921004942 0 0.0 0.0 0.00 0.00 0.00 997.3
20180921004507 44 278 10.0 14.0 0.00 0.08 0.01 90 997.5
20180921003449 0 0.0 0.0 0.00 0.00 0.00 997.1
20180921003012 44 253 7.0 13.0 0.01 0.08 0.01 91 997.4
20180921001959 0 0.0 0.0 0.00 0.00 0.00 997.4
20180921001524 43 240 7.0 12.0 0.01 0.08 0.01 91 997.7
20180921000448 0 0.0 0.0 0.00 0.00 0.00 997.3
20180921000003 43 271 6.0 11.0 0.01 0.08 0.01 91 997.5
20180920234928 0 0.0 0.0 0.00 0.00 0.00 997.1
20180920234502 44 254 7.0 14.0 0.03 0.12 0.01 90 997.3
20180920233437 0 0.0 0.0 0.00 0.00 0.00 997.3
20180920233101 45 249 8.0 17.0 0.02 0.11 0.00 88 997.8
20180920233002 45 255 8.0 17.0 0.02 0.11 0.00 88 997.8
20180920231918 0 0.0 0.0 0.00 0.00 0.00 997.2
20180920231631 45 289 8.0 11.0 0.02 0.11 0.00 89 997.5
20180920230418 0 0.0 0.0 0.00 0.00 0.00 997.1
20180920230129 45 288 9.0 21.0 0.02 0.11 0.00 87 997.4
20180920224834 0 0.0 0.0 0.00 0.00 0.00 997.2
20180920224623 44 296 10.0 14.0 0.00 0.09 0.09 88 997.6
20180920223342 0 0.0 0.0 0.00 0.00 0.00 997.4
20180920223111 45 276 11.0 17.0 0.00 0.09 0.09 90 997.7
20180920221806 0 0.0 0.0 0.00 0.00 0.00 997.7
20180920221552 45 283 11.0 18.0 0.00 0.09 0.09 89 997.9
20180920220336 0 0.0 0.0 0.00 0.00 0.00 997.7
20180920220051 45 270 4.0 10.0 0.00 0.09 0.09 88 997.9
20180920214756 0 0.0 0.0 0.00 0.00 0.00 997.6
20180920214620 45 279 7.0 10.0 0.00 0.09 0.09 87 997.8
20180920213305 0 0.0 0.0 0.00 0.00 0.00 997.8
20180920213057 44 295 3.0 7.0 0.00 0.09 0.09 88 998.0
20180920211743 0 0.0 0.0 0.00 0.00 0.00 997.6
20180920211628 44 308 4.0 6.0 0.00 0.09 0.09 89 997.8
20180920210203 0 0.0 0.0 0.00 0.00 0.00 997.7
20180920210051 45 307 3.0 5.0 0.00 0.09 0.09 89 998.0
20180920204654 0 0.0 0.0 0.00 0.00 0.00 998.3
20180920204612 45 300 5.0 8.0 0.00 0.09 0.09 88 998.5
20180920203104 45 282 7.0 11.0 0.00 0.09 0.09 88 998.9
20180920203102 0 0.0 0.0 0.00 0.00 0.00 998.6
20180920201625 44 253 3.0 7.0 0.00 0.09 0.09 90 999.0
20180920201452 0 0.0 0.0 0.00 0.00 0.00 998.8
20180920200048 44 331 0.0 0.0 0.00 0.09 0.09 91 998.7
20180920195929 0 0.0 0.0 0.00 0.00 0.00 998.5
20180920194550 44 331 0.0 3.0 0.00 0.09 0.09 90 999.0
20180920194427 0 0.0 0.0 0.00 0.00 0.00 998.6
20180920193049 45 331 4.0 5.0 0.00 0.09 0.09 90 999.3
20180920192913 0 0.0 0.0 0.00 0.00 0.00 998.9
20180920191600 45 349 0.0 3.0 0.01 0.09 0.09 90 999.2
20180920191436 0 0.0 0.0 0.00 0.00 0.00 998.8
20180920190036 45 349 0.0 3.0 0.02 0.09 0.09 89 999.0
20180920185851 0 0.0 0.0 0.00 0.00 0.00 998.7
20180920184555 45 349 0.0 3.0 0.04 0.09 0.09 89 999.5
20180920184350 0 0.0 0.0 0.00 0.00 0.00 999.4
20180920183040 46 330 0.0 6.0 0.04 0.09 0.09 88 999.9
20180920182828 0 0.0 0.0 0.00 0.00 0.00 999.7
20180920181538 46 339 0.0 3.0 0.03 0.08 0.08 89 1000.1
20180920181343 0 0.0 0.0 0.00 0.00 0.00 1000.0
20180920180107 46 309 5.0 8.0 0.02 0.07 0.07 87 999.9
20180920175829 0 0.0 0.0 0.00 0.00 0.00 999.6
20180920174540 47 317 7.0 12.0 0.00 0.05 0.05 86 999.9
20180920174335 0 0.0 0.0 0.00 0.00 0.00 999.6
20180920173036 47 301 12.0 16.0 0.00 0.05 0.05 84 1000.1
20180920172723 0 0.0 0.0 0.00 0.00 0.00 1000.0
20180920171551 48 291 8.0 13.0 0.00 0.05 0.05 84 1000.5
20180920171215 0 0.0 0.0 0.00 0.00 0.00 1000.4
20180920170028 48 318 9.0 16.0 0.00 0.05 0.05 83 1000.6
20180920165712 50 277 7.0 14.0 0.00 0.00 0.00 75 1000.4
20180920164527 50 290 11.0 16.0 0.00 0.05 0.05 80 1000.9
20180920164028 51 290 6.0 10.0 0.00 0.00 0.00 79 1000.5
20180920163023 51 226 0.0 5.0 0.00 0.05 0.05 83 1000.8
20180920162547 52 215 3.0 6.0 0.00 0.00 0.00 79 1000.7
20180920161537 52 200 0.0 5.0 0.00 0.05 0.05 81 1000.9
20180920161111 52 182 2.0 4.0 0.00 0.00 0.00 78 1000.7
20180920160019 52 195 0.0 5.0 0.00 0.05 0.05 80 1001.3
20180920155641 52 188 2.0 5.0 0.00 0.00 0.00 76 1001.1
20180920154526 53 195 0.0 5.0 0.00 0.05 0.05 80 1001.3
20180920154202 53 166 2.0 5.0 0.00 0.00 0.00 75 1001.0